createdAt,value
2023-03-11T00:02:21.825Z,6.67
2023-03-11T00:05:08.830Z,6.40
2023-03-11T00:07:54.619Z,6.60
2023-03-11T00:10:43.171Z,6.97
2023-03-11T00:13:29.492Z,6.63
2023-03-11T00:16:14.754Z,6.60
2023-03-11T00:19:00.107Z,6.57
2023-03-11T00:21:45.406Z,6.37
2023-03-11T00:24:30.346Z,5.90
2023-03-11T00:27:15.683Z,6.37
2023-03-11T00:30:01.195Z,6.30
2023-03-11T00:32:57.993Z,6.30
2023-03-11T00:35:43.889Z,6.60
2023-03-11T00:38:29.055Z,7.00
2023-03-11T00:41:14.478Z,6.53
2023-03-11T00:44:00.315Z,6.80
2023-03-11T00:46:45.600Z,6.63
2023-03-11T00:49:31.195Z,6.73
2023-03-11T00:52:16.521Z,6.90
2023-03-11T00:55:02.007Z,6.80
2023-03-11T00:57:47.335Z,7.00
2023-03-11T01:00:33.029Z,6.27
2023-03-11T01:03:18.344Z,6.37
2023-03-11T01:06:04.349Z,6.27
2023-03-11T01:08:51.085Z,6.10
2023-03-11T01:11:36.408Z,6.40
2023-03-11T01:14:21.723Z,6.40
2023-03-11T01:17:07.257Z,6.30
2023-03-11T01:19:52.669Z,6.17
2023-03-11T01:22:37.982Z,6.07
2023-03-11T01:25:24.294Z,5.87
2023-03-11T01:28:10.130Z,6.10
2023-03-11T01:30:55.725Z,6.20
2023-03-11T01:33:41.043Z,6.07
2023-03-11T01:36:26.484Z,5.73
2023-03-11T01:39:12.118Z,6.40
2023-03-11T01:41:57.492Z,5.70
2023-03-11T01:44:43.073Z,6.00
2023-03-11T01:47:37.707Z,6.13
2023-03-11T01:50:23.445Z,6.13
2023-03-11T01:53:09.874Z,6.77
2023-03-11T01:55:55.531Z,6.57
2023-03-11T01:58:44.329Z,6.33
2023-03-11T02:01:30.023Z,6.00
2023-03-11T02:04:15.989Z,6.43
2023-03-11T02:07:02.291Z,6.13
2023-03-11T02:09:47.639Z,6.00
2023-03-11T02:12:36.023Z,6.00
2023-03-11T02:15:21.337Z,5.97
2023-03-11T02:18:07.977Z,6.43
2023-03-11T02:21:27.670Z,5.73
2023-03-11T02:24:34.967Z,5.63
2023-03-11T02:27:22.069Z,5.60
2023-03-11T02:30:10.376Z,6.03
2023-03-11T02:32:56.175Z,5.40
2023-03-11T02:35:41.369Z,5.77
2023-03-11T02:38:26.530Z,5.23
2023-03-11T02:41:12.081Z,5.43
2023-03-11T02:43:58.798Z,5.30
2023-03-11T02:46:45.196Z,5.33
2023-03-11T02:49:31.306Z,5.80
2023-03-11T02:52:17.515Z,5.70
2023-03-11T02:55:04.010Z,5.73
2023-03-11T02:57:50.273Z,5.37
2023-03-11T03:00:36.083Z,5.60
2023-03-11T03:03:21.053Z,6.07
2023-03-11T03:06:06.532Z,5.47
2023-03-11T03:08:51.802Z,6.00
2023-03-11T03:11:37.172Z,5.20
2023-03-11T03:14:22.575Z,5.73
2023-03-11T03:17:10.523Z,5.13
2023-03-11T03:19:55.998Z,5.57
2023-03-11T03:22:42.358Z,5.43
2023-03-11T03:25:27.702Z,5.40
2023-03-11T03:28:13.884Z,4.87
2023-03-11T03:31:07.160Z,5.70
2023-03-11T03:33:52.644Z,5.37
2023-03-11T03:36:38.052Z,4.43
2023-03-11T03:39:28.212Z,4.90
2023-03-11T03:42:14.407Z,4.90
2023-03-11T03:45:00.025Z,5.07
2023-03-11T03:47:45.312Z,4.83
2023-03-11T03:50:33.802Z,5.00
2023-03-11T03:53:22.626Z,5.03
2023-03-11T03:56:18.965Z,4.63
2023-03-11T03:59:04.528Z,5.50
2023-03-11T04:01:49.339Z,5.00
2023-03-11T04:04:34.598Z,5.03
2023-03-11T04:07:19.900Z,5.13
2023-03-11T04:10:05.552Z,4.70
2023-03-11T04:12:50.969Z,4.60
2023-03-11T04:15:38.937Z,4.43
2023-03-11T04:18:24.336Z,4.50
2023-03-11T04:21:09.833Z,4.53
2023-03-11T04:23:55.376Z,5.50
2023-03-11T04:26:40.807Z,4.50
2023-03-11T04:29:26.211Z,4.90
2023-03-11T04:32:11.711Z,4.87
2023-03-11T04:34:56.891Z,4.60
2023-03-11T04:37:42.204Z,4.37
2023-03-11T04:40:27.672Z,4.40
2023-03-11T04:43:13.071Z,4.70
2023-03-11T04:45:58.768Z,4.37
2023-03-11T04:48:43.828Z,5.00
2023-03-11T04:51:29.038Z,4.20
2023-03-11T04:54:14.547Z,4.60
2023-03-11T04:56:59.811Z,4.33
2023-03-11T04:59:45.175Z,3.97
2023-03-11T05:02:30.059Z,4.00
2023-03-11T05:05:15.722Z,4.07
2023-03-11T05:08:00.850Z,4.10
2023-03-11T05:10:46.189Z,3.53
2023-03-11T05:13:31.679Z,3.57
2023-03-11T05:16:17.059Z,4.50
2023-03-11T05:19:02.436Z,3.63
2023-03-11T05:21:47.604Z,3.37
2023-03-11T05:24:33.746Z,3.50
2023-03-11T05:27:18.984Z,3.40
2023-03-11T05:30:04.876Z,3.50
2023-03-11T05:32:50.642Z,3.50
2023-03-11T05:35:35.654Z,3.40
2023-03-11T05:38:20.977Z,3.00
2023-03-11T05:41:06.507Z,3.50
2023-03-11T05:43:51.765Z,3.50
2023-03-11T05:46:37.392Z,3.10
2023-03-11T05:49:23.035Z,3.53
2023-03-11T05:52:08.469Z,3.53
2023-03-11T05:54:53.999Z,3.27
2023-03-11T05:57:39.771Z,3.07
2023-03-11T06:00:24.955Z,3.30
2023-03-11T06:03:10.256Z,3.43
2023-03-11T06:05:56.131Z,3.20
2023-03-11T06:08:41.481Z,3.50
2023-03-11T06:11:26.849Z,3.10
2023-03-11T06:14:14.502Z,3.60
2023-03-11T06:16:59.573Z,3.50
2023-03-11T06:19:44.983Z,3.77
2023-03-11T06:22:29.795Z,3.83
2023-03-11T06:25:15.068Z,3.50
2023-03-11T06:28:00.434Z,3.33
2023-03-11T06:30:45.295Z,3.20
2023-03-11T06:33:30.237Z,3.93
2023-03-11T06:36:18.383Z,3.40
2023-03-11T06:39:03.834Z,3.13
2023-03-11T06:41:49.041Z,3.83
2023-03-11T06:44:34.473Z,3.40
2023-03-11T06:47:19.889Z,3.50
2023-03-11T06:50:05.557Z,3.30
2023-03-11T06:52:51.009Z,3.77
2023-03-11T06:55:35.944Z,3.13
2023-03-11T06:58:21.143Z,3.77
2023-03-11T07:01:17.906Z,3.60
2023-03-11T07:04:03.091Z,3.53
2023-03-11T07:06:48.476Z,3.53
2023-03-11T07:09:33.682Z,3.40
2023-03-11T07:12:19.165Z,3.27
2023-03-11T07:15:04.944Z,3.40
2023-03-11T07:17:50.424Z,3.10
2023-03-11T07:20:35.868Z,3.20
2023-03-11T07:23:24.170Z,3.30
2023-03-11T07:26:11.175Z,3.43
2023-03-11T07:28:57.212Z,3.10
2023-03-11T07:31:42.431Z,3.40
2023-03-11T07:34:27.909Z,3.30
2023-03-11T07:37:14.050Z,3.30
2023-03-11T07:39:59.670Z,3.00
2023-03-11T07:42:45.102Z,3.17
2023-03-11T07:45:29.981Z,3.00
2023-03-11T07:48:15.421Z,4.10
2023-03-11T07:51:05.251Z,2.97
2023-03-11T07:53:52.802Z,3.23
2023-03-11T07:56:39.127Z,2.87
2023-03-11T07:59:24.523Z,3.07
2023-03-11T08:02:10.676Z,3.10
2023-03-11T08:04:56.201Z,2.60
2023-03-11T08:07:41.201Z,2.83
2023-03-11T08:10:26.780Z,2.73
2023-03-11T08:13:11.710Z,2.60
2023-03-11T08:15:56.721Z,2.90
2023-03-11T08:18:43.000Z,2.67
2023-03-11T08:21:30.176Z,2.63
2023-03-11T08:24:15.414Z,18.17
2023-03-11T08:27:01.031Z,11.00
2023-03-11T08:29:46.914Z,3.30
2023-03-11T08:32:32.683Z,2.50
2023-03-11T08:35:18.137Z,2.70
2023-03-11T08:38:03.537Z,2.50
2023-03-11T08:40:48.820Z,2.37
2023-03-11T08:43:34.191Z,2.40
2023-03-11T08:46:42.314Z,2.80
2023-03-11T08:49:27.880Z,2.33
2023-03-11T08:52:13.172Z,2.43
2023-03-11T08:54:58.543Z,2.40
2023-03-11T08:57:44.693Z,2.43
2023-03-11T09:00:32.201Z,2.67
2023-03-11T09:03:17.183Z,2.17
2023-03-11T09:06:06.290Z,2.53
2023-03-11T09:08:51.909Z,2.17
2023-03-11T09:11:37.145Z,2.23
2023-03-11T09:14:22.531Z,2.60
2023-03-11T09:17:08.686Z,2.30
2023-03-11T09:19:53.692Z,2.37
2023-03-11T09:22:39.017Z,2.30
2023-03-11T09:25:24.797Z,2.27
2023-03-11T09:28:10.008Z,2.00
2023-03-11T09:30:55.267Z,2.40
2023-03-11T09:33:42.399Z,2.37
2023-03-11T09:36:27.569Z,2.30
2023-03-11T09:39:14.479Z,2.23
2023-03-11T09:42:22.525Z,2.40
2023-03-11T09:45:18.476Z,2.40
2023-03-11T09:48:16.731Z,2.37
2023-03-11T09:51:14.929Z,2.33
2023-03-11T09:54:04.895Z,2.37
2023-03-11T09:56:50.820Z,2.30
2023-03-11T09:59:38.075Z,2.30
2023-03-11T10:02:25.258Z,2.20
2023-03-11T10:05:20.283Z,2.60
2023-03-11T10:08:32.862Z,2.40
2023-03-11T10:11:44.953Z,2.00
2023-03-11T10:14:46.690Z,2.37
2023-03-11T10:17:53.962Z,2.03
2023-03-11T10:20:50.799Z,1.80
2023-03-11T10:23:54.385Z,2.37
2023-03-11T10:26:48.924Z,1.90
2023-03-11T10:29:52.161Z,2.30
2023-03-11T10:32:46.470Z,2.00
2023-03-11T10:35:48.117Z,1.90
2023-03-11T10:38:40.054Z,1.70
2023-03-11T10:41:46.480Z,2.53
2023-03-11T10:44:39.943Z,1.87
2023-03-11T10:47:25.479Z,1.90
2023-03-11T10:50:17.406Z,1.70
2023-03-11T10:53:13.146Z,2.10
2023-03-11T10:55:59.684Z,1.80
2023-03-11T10:58:49.473Z,2.20
2023-03-11T11:01:34.943Z,1.83
2023-03-11T11:04:35.567Z,1.90
2023-03-11T11:07:26.959Z,1.90
2023-03-11T11:10:11.953Z,2.20
2023-03-11T11:13:19.136Z,1.77
2023-03-11T11:16:25.095Z,1.80
2023-03-11T11:19:14.129Z,2.23
2023-03-11T11:22:04.824Z,1.60
2023-03-11T11:24:52.811Z,1.90
2023-03-11T11:27:37.952Z,2.07
2023-03-11T11:30:24.113Z,1.70
2023-03-11T11:33:55.100Z,1.67
2023-03-11T11:36:40.625Z,1.97
2023-03-11T11:39:30.747Z,1.70
2023-03-11T11:42:16.055Z,1.73
2023-03-11T11:45:13.454Z,1.87
2023-03-11T11:48:03.063Z,1.80
2023-03-11T11:50:55.494Z,1.80
2023-03-11T11:53:46.354Z,1.73
2023-03-11T11:56:31.933Z,1.53
2023-03-11T11:59:19.450Z,1.70
2023-03-11T12:02:23.054Z,1.40
2023-03-11T12:05:27.730Z,1.60
2023-03-11T12:08:23.129Z,1.57
2023-03-11T12:11:28.810Z,2.27
2023-03-11T12:14:17.284Z,1.47
2023-03-11T12:17:04.915Z,1.80
2023-03-11T12:19:56.655Z,2.23
2023-03-11T12:23:02.204Z,29.00
2023-03-11T12:26:13.581Z,2.70
2023-03-11T12:29:15.653Z,1.70
2023-03-11T12:32:02.439Z,2.00
2023-03-11T12:34:48.907Z,1.97
2023-03-11T12:37:34.287Z,1.57
2023-03-11T12:40:44.349Z,1.53
2023-03-11T12:43:32.844Z,1.57
2023-03-11T12:47:04.056Z,1.47
2023-03-11T12:50:28.277Z,1.43
2023-03-11T12:53:17.280Z,1.80
2023-03-11T12:56:17.989Z,2.20
2023-03-11T12:59:34.391Z,1.53
2023-03-11T13:02:57.093Z,1.50
2023-03-11T13:06:01.061Z,1.63
2023-03-11T13:08:53.508Z,1.60
2023-03-11T13:11:44.637Z,1.87
2023-03-11T13:14:33.845Z,1.67
2023-03-11T13:17:27.901Z,1.60
2023-03-11T13:20:41.109Z,1.70
2023-03-11T13:23:31.058Z,1.60
2023-03-11T13:26:22.374Z,1.30
2023-03-11T13:29:32.916Z,1.63
2023-03-11T13:32:52.025Z,1.50
2023-03-11T13:35:55.767Z,1.90
2023-03-11T13:39:03.029Z,1.90
2023-03-11T13:41:51.427Z,1.57
2023-03-11T13:44:40.105Z,1.90
2023-03-11T13:47:27.157Z,1.40
2023-03-11T13:50:37.193Z,1.80
2023-03-11T13:53:41.410Z,2.40
2023-03-11T13:56:31.382Z,1.60
2023-03-11T14:00:25.307Z,1.30
2023-03-11T14:03:27.553Z,1.80
2023-03-11T14:06:19.731Z,1.50
2023-03-11T14:09:06.452Z,1.73
2023-03-11T14:11:54.436Z,1.30
2023-03-11T14:14:56.222Z,1.83
2023-03-11T14:17:41.635Z,1.50
2023-03-11T14:20:29.567Z,1.60
2023-03-11T14:23:19.211Z,1.70
2023-03-11T14:26:12.696Z,1.50
2023-03-11T14:29:07.094Z,1.70
2023-03-11T14:31:52.564Z,8.80
2023-03-11T14:34:40.363Z,1.67
2023-03-11T14:37:31.744Z,1.43
2023-03-11T14:40:29.871Z,1.50
2023-03-11T14:43:15.115Z,1.40
2023-03-11T14:46:30.177Z,1.93
2023-03-11T14:49:21.182Z,2.20
2023-03-11T14:52:15.820Z,1.30
2023-03-11T14:55:06.262Z,1.50
2023-03-11T14:58:05.734Z,1.30
2023-03-11T15:01:00.051Z,1.70
2023-03-11T15:03:51.228Z,1.70
2023-03-11T15:06:40.587Z,1.40
2023-03-11T15:09:27.841Z,1.50
2023-03-11T15:12:34.968Z,1.50
2023-03-11T15:15:28.645Z,1.67
2023-03-11T15:18:24.446Z,1.53
2023-03-11T15:21:22.138Z,1.20
2023-03-11T15:24:19.994Z,1.50
2023-03-11T15:27:19.089Z,1.60
2023-03-11T15:30:17.090Z,1.40
2023-03-11T15:33:20.832Z,1.60
2023-03-11T15:36:06.481Z,1.60
2023-03-11T15:39:12.327Z,1.60
2023-03-11T15:42:12.162Z,1.57
2023-03-11T15:45:00.501Z,1.80
2023-03-11T15:47:47.704Z,1.80
2023-03-11T15:50:50.552Z,1.80
2023-03-11T15:53:37.826Z,2.10
2023-03-11T15:56:25.158Z,2.83
2023-03-11T15:59:19.726Z,2.40
2023-03-11T16:02:26.039Z,3.10
2023-03-11T16:05:20.315Z,1.90
2023-03-11T16:08:05.809Z,1.70
2023-03-11T16:10:50.992Z,1.87
2023-03-11T16:13:36.451Z,1.27
2023-03-11T16:16:21.679Z,1.80
2023-03-11T16:19:07.157Z,1.73
2023-03-11T16:21:52.469Z,1.70
2023-03-11T16:24:37.996Z,1.87
2023-03-11T16:27:23.317Z,1.83
2023-03-11T16:30:10.487Z,1.60
2023-03-11T16:32:56.079Z,2.17
2023-03-11T16:35:41.213Z,1.90
2023-03-11T16:38:26.825Z,2.47
2023-03-11T16:41:12.414Z,1.90
2023-03-11T16:43:57.557Z,1.80
2023-03-11T16:46:42.767Z,1.93
2023-03-11T16:49:28.022Z,2.27
2023-03-11T16:52:13.504Z,2.13
2023-03-11T16:54:58.800Z,1.80
2023-03-11T16:57:44.284Z,1.60
2023-03-11T17:00:29.254Z,1.70
2023-03-11T17:03:18.235Z,1.80
2023-03-11T17:06:06.170Z,1.70
2023-03-11T17:08:51.218Z,1.70
2023-03-11T17:11:36.515Z,1.60
2023-03-11T17:14:21.945Z,1.90
2023-03-11T17:17:07.232Z,1.90
2023-03-11T17:19:52.081Z,2.70
2023-03-11T17:22:37.403Z,2.77
2023-03-11T17:25:22.616Z,2.70
2023-03-11T17:28:08.667Z,2.70
2023-03-11T17:30:53.684Z,3.20
2023-03-11T17:33:39.492Z,2.80
2023-03-11T17:36:25.029Z,3.10
2023-03-11T17:39:09.951Z,3.13
2023-03-11T17:41:55.407Z,3.57
2023-03-11T17:44:51.129Z,4.10
2023-03-11T17:47:37.117Z,8.60
2023-03-11T17:50:22.372Z,7.30
2023-03-11T17:53:07.854Z,9.77
2023-03-11T17:55:53.174Z,9.60
2023-03-11T17:58:39.159Z,9.10
2023-03-11T18:01:26.518Z,14.17
2023-03-11T18:04:12.547Z,12.17
2023-03-11T18:06:57.399Z,12.90
2023-03-11T18:09:42.698Z,8.13
2023-03-11T18:12:28.408Z,9.83
2023-03-11T18:15:14.503Z,5.83
2023-03-11T18:17:59.533Z,10.40
2023-03-11T18:20:45.043Z,7.10
2023-03-11T18:23:31.159Z,6.30
2023-03-11T18:26:18.417Z,9.77
2023-03-11T18:29:03.809Z,9.97
2023-03-11T18:31:49.083Z,9.73
2023-03-11T18:34:34.496Z,9.40
2023-03-11T18:37:19.421Z,7.90
2023-03-11T18:40:04.875Z,7.93
2023-03-11T18:42:52.441Z,8.77
2023-03-11T18:45:39.006Z,7.17
2023-03-11T18:48:24.417Z,7.87
2023-03-11T18:51:09.823Z,9.70
2023-03-11T18:53:55.619Z,9.37
2023-03-11T18:56:41.245Z,9.10
2023-03-11T18:59:26.486Z,10.43
2023-03-11T19:02:12.004Z,8.93
2023-03-11T19:04:57.422Z,8.07
2023-03-11T19:07:42.764Z,8.10
2023-03-11T19:10:28.180Z,8.10
2023-03-11T19:13:13.508Z,8.90
2023-03-11T19:16:01.707Z,7.73
2023-03-11T19:18:47.639Z,6.63
2023-03-11T19:21:32.616Z,6.43
2023-03-11T19:24:18.091Z,7.60
2023-03-11T19:27:03.716Z,12.30
2023-03-11T19:29:48.950Z,11.43
2023-03-11T19:32:33.994Z,13.57
2023-03-11T19:35:21.452Z,13.13
2023-03-11T19:38:06.932Z,11.50
2023-03-11T19:40:54.099Z,11.80
2023-03-11T19:43:39.342Z,11.30
2023-03-11T19:46:24.975Z,11.03
2023-03-11T19:49:10.264Z,10.53
2023-03-11T19:51:55.410Z,11.57
2023-03-11T19:54:41.200Z,11.63
2023-03-11T19:57:26.144Z,12.03
2023-03-11T20:00:12.502Z,12.87
2023-03-11T20:02:57.634Z,13.63
2023-03-11T20:05:46.013Z,14.33
2023-03-11T20:08:31.153Z,14.13
2023-03-11T20:11:18.115Z,13.50
2023-03-11T20:14:03.517Z,13.33
2023-03-11T20:16:48.953Z,13.57
2023-03-11T20:19:35.469Z,14.13
2023-03-11T20:22:20.651Z,12.60
2023-03-11T20:25:06.374Z,12.77
2023-03-11T20:27:53.084Z,12.47
2023-03-11T20:30:39.019Z,12.63
2023-03-11T20:33:24.437Z,11.77
2023-03-11T20:36:12.736Z,11.80
2023-03-11T20:38:57.784Z,12.93
2023-03-11T20:41:43.209Z,13.70
2023-03-11T20:44:28.097Z,13.93
2023-03-11T20:47:13.076Z,14.43
2023-03-11T20:50:18.082Z,13.53
2023-03-11T20:53:03.571Z,14.70
2023-03-11T20:55:48.946Z,12.97
2023-03-11T20:58:37.813Z,12.90
2023-03-11T21:01:29.467Z,12.23
2023-03-11T21:04:16.458Z,12.00
2023-03-11T21:07:01.509Z,12.97
2023-03-11T21:09:46.956Z,14.20
2023-03-11T21:12:32.627Z,13.67
2023-03-11T21:15:17.790Z,12.27
2023-03-11T21:18:03.580Z,12.00
2023-03-11T21:20:48.705Z,12.17
2023-03-11T21:23:34.548Z,13.07
2023-03-11T21:26:19.883Z,13.50
2023-03-11T21:29:05.463Z,13.73
2023-03-11T21:31:51.084Z,13.00
2023-03-11T21:34:36.735Z,13.57
2023-03-11T21:37:22.280Z,13.73
2023-03-11T21:40:08.410Z,14.43
2023-03-11T21:42:53.737Z,15.27
2023-03-11T21:45:39.240Z,14.23
2023-03-11T21:48:24.575Z,14.20
2023-03-11T21:51:10.217Z,14.53
2023-03-11T21:53:55.146Z,15.93
2023-03-11T21:56:41.667Z,18.27
2023-03-11T21:59:26.974Z,20.23
2023-03-11T22:02:15.246Z,19.13
2023-03-11T22:05:00.721Z,16.80
2023-03-11T22:07:46.129Z,20.00
2023-03-11T22:10:32.063Z,18.80
2023-03-11T22:13:17.458Z,14.63
2023-03-11T22:16:07.110Z,14.30
2023-03-11T22:18:53.247Z,23.57
2023-03-11T22:21:38.181Z,22.17
2023-03-11T22:24:23.462Z,21.33
2023-03-11T22:27:09.040Z,22.03
2023-03-11T22:29:54.425Z,20.50
2023-03-11T22:32:39.973Z,21.50
2023-03-11T22:35:25.479Z,105.70
2023-03-11T22:38:11.110Z,21.70
2023-03-11T22:40:56.475Z,22.97
2023-03-11T22:43:41.680Z,21.90
2023-03-11T22:46:28.016Z,22.50
2023-03-11T22:49:13.218Z,19.57
2023-03-11T22:51:58.584Z,22.83
2023-03-11T22:54:43.852Z,17.50
2023-03-11T22:57:29.042Z,16.03
2023-03-11T23:00:19.587Z,17.70
2023-03-11T23:03:04.998Z,20.10
2023-03-11T23:05:50.124Z,19.03
2023-03-11T23:08:36.154Z,15.57
2023-03-11T23:11:21.735Z,15.30
2023-03-11T23:14:07.501Z,14.77
2023-03-11T23:16:53.142Z,14.67
2023-03-11T23:19:38.369Z,14.10
2023-03-11T23:22:23.858Z,15.63
2023-03-11T23:25:13.672Z,13.53
2023-03-11T23:28:01.866Z,12.97
2023-03-11T23:30:47.314Z,12.93
2023-03-11T23:33:32.553Z,12.87
2023-03-11T23:36:21.138Z,13.37
2023-03-11T23:39:06.228Z,13.67
2023-03-11T23:41:51.672Z,13.83
2023-03-11T23:44:37.056Z,13.73
2023-03-11T23:47:22.679Z,13.70
2023-03-11T23:50:08.910Z,13.27
2023-03-11T23:52:54.214Z,13.90
2023-03-11T23:55:39.719Z,13.27
2023-03-11T23:58:25.136Z,13.37
